createdAt,value
2023-03-05T00:02:44.886Z,616.00
2023-03-05T00:06:45.002Z,610.00
2023-03-05T00:10:45.086Z,611.00
2023-03-05T00:14:45.199Z,614.00
2023-03-05T00:18:45.326Z,615.00
2023-03-05T00:22:45.435Z,610.00
2023-03-05T00:26:45.536Z,612.00
2023-03-05T00:30:45.651Z,613.00
2023-03-05T00:34:45.780Z,607.00
2023-03-05T00:38:45.914Z,615.00
2023-03-05T00:42:46.031Z,619.00
2023-03-05T00:46:46.206Z,618.00
2023-03-05T00:50:46.286Z,613.00
2023-03-05T00:54:46.402Z,614.00
2023-03-05T00:58:46.541Z,618.00
2023-03-05T01:02:46.647Z,617.00
2023-03-05T01:06:46.743Z,615.00
2023-03-05T01:10:46.869Z,614.00
2023-03-05T01:14:46.995Z,613.00
2023-03-05T01:18:47.090Z,610.00
2023-03-05T01:22:47.212Z,604.00
2023-03-05T01:26:47.357Z,602.00
2023-03-05T01:30:47.530Z,609.00
2023-03-05T01:34:47.665Z,609.00
2023-03-05T01:38:47.810Z,611.00
2023-03-05T01:42:47.967Z,608.00
2023-03-05T01:46:48.093Z,611.00
2023-03-05T01:50:48.325Z,609.00
2023-03-05T01:54:48.357Z,609.00
2023-03-05T01:58:48.470Z,617.00
2023-03-05T02:02:48.652Z,614.00
2023-03-05T02:06:48.789Z,608.00
2023-03-05T02:10:48.919Z,607.00
2023-03-05T02:14:49.037Z,609.00
2023-03-05T02:18:49.219Z,607.00
2023-03-05T02:22:49.323Z,607.00
2023-03-05T02:26:49.490Z,608.00
2023-03-05T02:30:49.665Z,608.00
2023-03-05T02:34:49.776Z,609.00
2023-03-05T02:38:49.878Z,608.00
2023-03-05T02:42:49.982Z,610.00
2023-03-05T02:46:50.177Z,609.00
2023-03-05T02:50:50.263Z,609.00
2023-03-05T02:54:50.427Z,608.00
2023-03-05T02:58:50.575Z,612.00
2023-03-05T03:02:50.747Z,610.00
2023-03-05T03:06:50.853Z,605.00
2023-03-05T03:10:51.028Z,608.00
2023-03-05T03:14:51.201Z,607.00
2023-03-05T03:18:51.334Z,609.00
2023-03-05T03:22:51.505Z,614.00
2023-03-05T03:26:51.688Z,614.00
2023-03-05T03:30:51.897Z,617.00
2023-03-05T03:34:51.995Z,613.00
2023-03-05T03:38:52.184Z,605.00
2023-03-05T03:42:52.340Z,607.00
2023-03-05T03:46:52.509Z,602.00
2023-03-05T03:50:52.684Z,606.00
2023-03-05T03:54:52.833Z,607.00
2023-03-05T03:58:52.995Z,608.00
2023-03-05T04:02:53.325Z,606.00
2023-03-05T04:06:53.369Z,609.00
2023-03-05T04:10:53.543Z,610.00
2023-03-05T04:14:53.721Z,610.00
2023-03-05T04:18:53.927Z,609.00
2023-03-05T04:22:54.084Z,609.00
2023-03-05T04:26:54.295Z,611.00
2023-03-05T04:30:54.516Z,610.00
2023-03-05T04:34:54.650Z,604.00
2023-03-05T04:38:54.844Z,601.00
2023-03-05T04:42:54.993Z,599.00
2023-03-05T04:46:55.209Z,600.00
2023-03-05T04:50:55.362Z,598.00
2023-03-05T04:54:55.584Z,595.00
2023-03-05T04:58:55.798Z,599.00
2023-03-05T05:02:56.016Z,599.00
2023-03-05T05:06:56.203Z,595.00
2023-03-05T05:10:56.460Z,592.00
2023-03-05T05:14:56.625Z,593.00
2023-03-05T05:18:56.865Z,595.00
2023-03-05T05:22:56.858Z,589.00
2023-03-05T05:26:56.808Z,588.00
2023-03-05T05:30:56.782Z,591.00
2023-03-05T05:34:56.765Z,590.00
2023-03-05T05:38:56.706Z,591.00
2023-03-05T05:42:56.662Z,584.00
2023-03-05T05:46:56.596Z,587.00
2023-03-05T05:50:56.580Z,587.00
2023-03-05T05:54:56.546Z,588.00
2023-03-05T05:58:56.531Z,586.00
2023-03-05T06:02:56.666Z,586.00
2023-03-05T06:06:56.622Z,585.00
2023-03-05T06:10:56.570Z,584.00
2023-03-05T06:14:56.520Z,586.00
2023-03-05T06:18:56.467Z,585.00
2023-03-05T06:22:56.489Z,585.00
2023-03-05T06:26:56.412Z,586.00
2023-03-05T06:30:56.438Z,583.00
2023-03-05T06:34:56.334Z,583.00
2023-03-05T06:38:56.297Z,578.00
2023-03-05T06:42:56.457Z,576.00
2023-03-05T06:46:56.420Z,583.00
2023-03-05T06:50:56.394Z,586.00
2023-03-05T06:54:56.339Z,581.00
2023-03-05T06:58:56.315Z,581.00
2023-03-05T07:02:56.261Z,583.00
2023-03-05T07:06:56.251Z,585.00
2023-03-05T07:10:56.189Z,580.00
2023-03-05T07:14:56.157Z,582.00
2023-03-05T07:18:56.127Z,578.00
2023-03-05T07:22:56.114Z,574.00
2023-03-05T07:26:56.254Z,577.00
2023-03-05T07:30:56.302Z,577.00
2023-03-05T07:34:56.204Z,578.00
2023-03-05T07:38:56.129Z,580.00
2023-03-05T07:42:56.121Z,576.00
2023-03-05T07:46:56.077Z,574.00
2023-03-05T07:50:56.019Z,576.00
2023-03-05T07:54:55.985Z,574.00
2023-03-05T07:58:55.943Z,572.00
2023-03-05T08:02:55.947Z,574.00
2023-03-05T08:06:56.045Z,574.00
2023-03-05T08:10:56.249Z,575.00
2023-03-05T08:14:56.462Z,573.00
2023-03-05T08:18:56.685Z,575.00
2023-03-05T08:22:56.903Z,578.00
2023-03-05T08:26:57.113Z,574.00
2023-03-05T08:30:57.332Z,573.00
2023-03-05T08:34:57.504Z,569.00
2023-03-05T08:38:57.679Z,570.00
2023-03-05T08:42:57.885Z,569.00
2023-03-05T08:46:58.166Z,567.00
2023-03-05T08:50:58.253Z,569.00
2023-03-05T08:54:58.446Z,570.00
2023-03-05T08:58:58.616Z,567.00
2023-03-05T09:02:58.817Z,569.00
2023-03-05T09:06:58.933Z,567.00
2023-03-05T09:10:59.089Z,568.00
2023-03-05T09:14:59.225Z,569.00
2023-03-05T09:18:59.340Z,566.00
2023-03-05T09:22:59.501Z,566.00
2023-03-05T09:26:59.634Z,571.00
2023-03-05T09:30:59.787Z,569.00
2023-03-05T09:34:59.933Z,568.00
2023-03-05T09:39:00.047Z,567.00
2023-03-05T09:43:00.205Z,567.00
2023-03-05T09:47:00.351Z,568.00
2023-03-05T09:51:00.449Z,569.00
2023-03-05T09:55:00.579Z,571.00
2023-03-05T09:59:00.709Z,572.00
2023-03-05T10:03:00.874Z,574.00
2023-03-05T10:07:00.901Z,574.00
2023-03-05T10:11:00.991Z,571.00
2023-03-05T10:15:01.081Z,573.00
2023-03-05T10:19:01.214Z,576.00
2023-03-05T10:23:01.257Z,573.00
2023-03-05T10:27:01.375Z,569.00
2023-03-05T10:31:01.414Z,568.00
2023-03-05T10:35:01.494Z,565.00
2023-03-05T10:39:01.525Z,567.00
2023-03-05T10:43:01.578Z,571.00
2023-03-05T10:47:01.631Z,576.00
2023-03-05T10:51:01.688Z,569.00
2023-03-05T10:55:01.755Z,571.00
2023-03-05T10:59:01.803Z,570.00
2023-03-05T11:03:01.867Z,572.00
2023-03-05T11:07:01.946Z,579.00
2023-03-05T11:11:03.861Z,577.00
2023-03-05T11:15:02.061Z,581.00
2023-03-05T11:19:02.124Z,573.00
2023-03-05T11:23:02.172Z,577.00
2023-03-05T11:27:02.199Z,576.00
2023-03-05T11:31:02.463Z,574.00
2023-03-05T11:35:02.257Z,572.00
2023-03-05T11:39:02.285Z,575.00
2023-03-05T11:43:02.280Z,571.00
2023-03-05T11:47:02.293Z,575.00
2023-03-05T11:51:02.321Z,571.00
2023-03-05T11:55:02.358Z,570.00
2023-03-05T11:59:02.398Z,574.00
2023-03-05T12:03:02.448Z,573.00
2023-03-05T12:07:02.445Z,576.00
2023-03-05T12:11:02.482Z,570.00
2023-03-05T12:15:02.531Z,572.00
2023-03-05T12:19:02.564Z,573.00
2023-03-05T12:23:02.567Z,578.00
2023-03-05T12:27:02.602Z,578.00
2023-03-05T12:31:02.595Z,577.00
2023-03-05T12:35:02.546Z,576.00
2023-03-05T12:39:02.584Z,576.00
2023-03-05T12:43:02.663Z,575.00
2023-03-05T12:47:02.645Z,577.00
2023-03-05T12:51:02.586Z,578.00
2023-03-05T12:55:02.580Z,580.00
2023-03-05T12:59:02.526Z,568.00
2023-03-05T13:03:02.452Z,586.00
2023-03-05T13:07:02.454Z,585.00
2023-03-05T13:11:02.397Z,575.00
2023-03-05T13:15:02.392Z,564.00
2023-03-05T13:19:02.362Z,573.00
2023-03-05T13:23:02.323Z,570.00
2023-03-05T13:27:02.274Z,570.00
2023-03-05T13:31:02.256Z,567.00
2023-03-05T13:35:02.192Z,550.00
2023-03-05T13:39:02.158Z,568.00
2023-03-05T13:43:02.104Z,573.00
2023-03-05T13:47:02.089Z,583.00
2023-03-05T13:51:02.240Z,568.00
2023-03-05T13:55:02.407Z,568.00
2023-03-05T13:59:02.466Z,571.00
2023-03-05T14:03:02.582Z,569.00
2023-03-05T14:07:02.662Z,574.00
2023-03-05T14:11:02.784Z,579.00
2023-03-05T14:15:02.784Z,581.00
2023-03-05T14:19:02.924Z,580.00
2023-03-05T14:23:02.981Z,577.00
2023-03-05T14:27:02.887Z,578.00
2023-03-05T14:31:02.984Z,572.00
2023-03-05T14:35:02.784Z,570.00
2023-03-05T14:39:02.761Z,582.00
2023-03-05T14:43:02.775Z,577.00
2023-03-05T14:47:02.703Z,574.00
2023-03-05T14:51:02.627Z,575.00
2023-03-05T14:55:02.633Z,580.00
2023-03-05T14:59:02.589Z,580.00
2023-03-05T15:03:02.586Z,575.00
2023-03-05T15:07:02.519Z,572.00
2023-03-05T15:11:02.491Z,577.00
2023-03-05T15:15:02.425Z,575.00
2023-03-05T15:19:02.433Z,573.00
2023-03-05T15:23:02.359Z,579.00
2023-03-05T15:27:02.329Z,581.00
2023-03-05T15:31:02.335Z,573.00
2023-03-05T15:35:02.269Z,580.00
2023-03-05T15:39:02.237Z,586.00
2023-03-05T15:43:02.178Z,580.00
2023-03-05T15:47:02.153Z,578.00
2023-03-05T15:51:02.271Z,581.00
2023-03-05T15:55:02.381Z,576.00
2023-03-05T15:59:02.518Z,579.00
2023-03-05T16:03:02.709Z,581.00
2023-03-05T16:07:02.907Z,580.00
2023-03-05T16:11:03.119Z,584.00
2023-03-05T16:15:03.076Z,585.00
2023-03-05T16:19:03.022Z,586.00
2023-03-05T16:23:03.000Z,585.00
2023-03-05T16:27:02.983Z,581.00
2023-03-05T16:31:02.973Z,587.00
2023-03-05T16:35:02.924Z,583.00
2023-03-05T16:39:02.873Z,581.00
2023-03-05T16:43:02.844Z,572.00
2023-03-05T16:47:02.837Z,572.00
2023-03-05T16:51:02.782Z,570.00
2023-03-05T16:55:02.731Z,572.00
2023-03-05T16:59:02.719Z,572.00
2023-03-05T17:03:02.674Z,569.00
2023-03-05T17:07:02.626Z,564.00
2023-03-05T17:11:02.556Z,562.00
2023-03-05T17:15:02.550Z,566.00
2023-03-05T17:19:02.525Z,569.00
2023-03-05T17:23:02.654Z,571.00
2023-03-05T17:27:02.839Z,570.00
2023-03-05T17:31:03.050Z,569.00
2023-03-05T17:35:05.478Z,568.00
2023-03-05T17:39:03.499Z,570.00
2023-03-05T17:43:03.428Z,566.00
2023-03-05T17:47:03.402Z,572.00
2023-03-05T17:51:03.374Z,571.00
2023-03-05T17:55:03.340Z,569.00
2023-03-05T17:59:03.304Z,567.00
2023-03-05T18:03:03.282Z,568.00
2023-03-05T18:07:03.240Z,564.00
2023-03-05T18:11:03.174Z,564.00
2023-03-05T18:15:03.134Z,564.00
2023-03-05T18:19:03.160Z,569.00
2023-03-05T18:23:03.367Z,566.00
2023-03-05T18:27:03.495Z,566.00
2023-03-05T18:31:03.613Z,568.00
2023-03-05T18:35:03.610Z,569.00
2023-03-05T18:39:03.682Z,570.00
2023-03-05T18:43:03.678Z,563.00
2023-03-05T18:47:03.685Z,557.00
2023-03-05T18:51:03.640Z,558.00
2023-03-05T18:55:03.613Z,557.00
2023-03-05T18:59:03.621Z,558.00
2023-03-05T19:03:03.648Z,562.00
2023-03-05T19:07:03.671Z,555.00
2023-03-05T19:11:03.658Z,563.00
2023-03-05T19:15:03.642Z,569.00
2023-03-05T19:19:03.690Z,568.00
2023-03-05T19:23:03.729Z,573.00
2023-03-05T19:27:03.771Z,572.00
2023-03-05T19:31:03.813Z,570.00
2023-03-05T19:35:03.778Z,569.00
2023-03-05T19:39:03.823Z,568.00
2023-03-05T19:43:03.878Z,564.00
2023-03-05T19:47:03.887Z,563.00
2023-03-05T19:51:03.920Z,559.00
2023-03-05T19:55:03.945Z,563.00
2023-03-05T19:59:03.934Z,561.00
2023-03-05T20:03:03.925Z,562.00
2023-03-05T20:07:03.976Z,563.00
2023-03-05T20:11:03.981Z,562.00
2023-03-05T20:15:03.999Z,559.00
2023-03-05T20:19:04.010Z,555.00
2023-03-05T20:23:04.035Z,556.00
2023-03-05T20:27:04.050Z,561.00
2023-03-05T20:31:04.153Z,563.00
2023-03-05T20:35:04.185Z,562.00
2023-03-05T20:39:04.219Z,564.00
2023-03-05T20:43:04.317Z,565.00
2023-03-05T20:47:04.376Z,562.00
2023-03-05T20:51:04.408Z,564.00
2023-03-05T20:55:04.460Z,562.00
2023-03-05T20:59:04.555Z,557.00
2023-03-05T21:03:04.636Z,565.00
2023-03-05T21:07:04.726Z,562.00
2023-03-05T21:11:04.768Z,558.00
2023-03-05T21:15:04.868Z,555.00
2023-03-05T21:19:04.959Z,554.00
2023-03-05T21:23:05.026Z,556.00
2023-03-05T21:27:05.112Z,556.00
2023-03-05T21:31:05.175Z,552.00
2023-03-05T21:35:05.253Z,550.00
2023-03-05T21:39:05.343Z,551.00
2023-03-05T21:43:05.435Z,550.00
2023-03-05T21:47:05.525Z,550.00
2023-03-05T21:51:05.631Z,548.00
2023-03-05T21:55:05.732Z,550.00
2023-03-05T21:59:05.779Z,552.00
2023-03-05T22:03:05.907Z,551.00
2023-03-05T22:07:06.614Z,553.00
2023-03-05T22:11:06.131Z,553.00
2023-03-05T22:15:06.214Z,553.00
2023-03-05T22:19:06.360Z,554.00
2023-03-05T22:23:06.449Z,548.00
2023-03-05T22:27:06.548Z,555.00
2023-03-05T22:31:06.802Z,555.00
2023-03-05T22:35:06.801Z,558.00
2023-03-05T22:39:06.936Z,557.00
2023-03-05T22:43:07.045Z,555.00
2023-03-05T22:47:07.183Z,550.00
2023-03-05T22:51:07.306Z,552.00
2023-03-05T22:55:07.447Z,549.00
2023-03-05T22:59:07.702Z,549.00
2023-03-05T23:03:07.773Z,549.00
2023-03-05T23:07:07.820Z,544.00
2023-03-05T23:11:07.933Z,549.00
2023-03-05T23:15:08.045Z,550.00
2023-03-05T23:19:08.178Z,556.00
2023-03-05T23:23:08.254Z,554.00
2023-03-05T23:27:08.430Z,556.00
2023-03-05T23:31:08.563Z,554.00
2023-03-05T23:35:08.666Z,555.00
2023-03-05T23:39:08.828Z,552.00
2023-03-05T23:43:08.971Z,554.00
2023-03-05T23:47:09.123Z,553.00
2023-03-05T23:51:09.230Z,545.00
2023-03-05T23:55:09.408Z,546.00
2023-03-05T23:59:09.611Z,547.00
